Time;durP1;ratioP1;P1;durP2;ratioP2;P2;SDS_P1;SDS_P2;PMS_P1;PMS_P2;Temp;Humidity;BMP_temperature;BMP_pressure;BME280_temperature;BME280_humidity;BME280_pressure;Samples;Min_cycle;Max_cycle;Signal;HPM_P1;HPM_P2
2022/05/21 00:00:37;;;;;;;14.10;6.90;;;21.50;99.90;;;;;;5006495;28;20150;-79
2022/05/21 00:03:05;;;;;;;18.58;6.53;;;21.40;99.90;;;;;;5005805;28;20517;-81
2022/05/21 00:05:35;;;;;;;11.85;5.78;;;21.30;99.90;;;;;;5004147;28;20041;-78
2022/05/21 00:08:02;;;;;;;13.57;6.03;;;21.30;99.90;;;;;;5002478;28;20057;-79
2022/05/21 00:10:30;;;;;;;13.27;6.25;;;21.30;99.90;;;;;;4997891;28;20037;-81
2022/05/21 00:12:56;;;;;;;14.73;6.53;;;21.30;99.90;;;;;;4999515;28;20045;-80
2022/05/21 00:15:25;;;;;;;10.93;5.82;;;21.20;99.90;;;;;;4998470;28;20037;-81
2022/05/21 00:17:51;;;;;;;13.93;5.95;;;21.20;99.90;;;;;;5007556;28;20042;-80
2022/05/21 00:23:31;;;;;;;17.80;7.93;;;21.00;99.90;;;;;;5000088;28;20030;-80
2022/05/21 00:26:02;;;;;;;16.10;7.57;;;20.70;99.90;;;;;;4999227;28;20045;-82
2022/05/21 00:28:28;;;;;;;18.40;7.05;;;20.50;99.90;;;;;;4999381;28;20058;-80
2022/05/21 00:30:55;;;;;;;10.88;7.15;;;20.30;99.90;;;;;;4999995;28;20507;-80
2022/05/21 00:33:21;;;;;;;14.00;6.75;;;20.30;99.90;;;;;;4984755;28;20038;-79
2022/05/21 00:35:48;;;;;;;12.25;6.80;;;20.20;99.90;;;;;;5010036;28;20037;-80
2022/05/21 00:38:14;;;;;;;14.02;6.90;;;20.20;99.90;;;;;;5009537;28;20053;-79
2022/05/21 00:40:41;;;;;;;22.45;7.05;;;20.20;99.90;;;;;;5010476;28;20023;-80
2022/05/21 00:43:27;;;;;;;13.85;6.93;;;20.20;99.90;;;;;;5009498;28;20030;-79
2022/05/21 00:45:53;;;;;;;14.57;6.95;;;20.10;99.90;;;;;;5011826;28;20041;-79
2022/05/21 00:48:18;;;;;;;13.95;6.57;;;20.10;99.90;;;;;;5004651;28;20030;-81
2022/05/21 00:50:44;;;;;;;11.38;6.75;;;20.10;99.90;;;;;;5003362;28;20061;-81
2022/05/21 00:53:11;;;;;;;18.98;7.25;;;20.00;99.90;;;;;;5004204;28;20049;-81
2022/05/21 00:55:37;;;;;;;14.10;6.35;;;19.90;99.90;;;;;;5002730;28;20046;-79
2022/05/21 01:00:55;;;;;;;9.95;6.47;;;19.90;99.90;;;;;;5002905;28;20041;-79
2022/05/21 01:03:21;;;;;;;18.27;6.35;;;19.90;99.90;;;;;;5001994;28;20030;-79
2022/05/21 01:05:48;;;;;;;12.95;6.35;;;19.90;99.90;;;;;;5001376;28;20339;-81
2022/05/21 01:08:14;;;;;;;15.55;6.88;;;19.90;99.90;;;;;;5003056;28;20022;-79
2022/05/21 01:10:45;;;;;;;18.88;6.50;;;19.80;99.90;;;;;;5004944;28;20509;-79
2022/05/21 01:13:15;;;;;;;11.18;6.25;;;19.80;99.90;;;;;;5003877;28;20061;-80
2022/05/21 01:15:44;;;;;;;14.00;6.68;;;19.80;99.90;;;;;;5002536;28;20038;-79
2022/05/21 01:18:11;;;;;;;16.52;7.13;;;19.70;99.90;;;;;;5006858;28;20117;-80
2022/05/21 01:20:41;;;;;;;12.27;6.40;;;19.70;99.90;;;;;;5005248;28;20031;-80
2022/05/21 01:23:07;;;;;;;11.65;6.55;;;19.70;99.90;;;;;;5002702;28;20030;-79
2022/05/21 01:25:35;;;;;;;16.35;6.95;;;19.70;99.90;;;;;;5001453;28;20026;-79
2022/05/21 01:28:03;;;;;;;14.55;7.22;;;19.70;99.90;;;;;;5001274;28;20486;-81
2022/05/21 01:30:36;;;;;;;14.77;7.32;;;19.60;99.90;;;;;;5006350;28;20022;-80
2022/05/21 01:33:08;;;;;;;16.02;7.70;;;19.60;99.90;;;;;;5000246;28;20107;-80
2022/05/21 01:35:35;;;;;;;14.23;7.22;;;19.60;99.90;;;;;;5000433;28;20433;-80
2022/05/21 01:38:01;;;;;;;14.02;7.40;;;19.60;99.90;;;;;;4998621;28;20053;-81
2022/05/21 01:40:28;;;;;;;13.25;6.68;;;19.50;99.90;;;;;;4999842;28;20026;-80
2022/05/21 01:45:38;;;;;;;14.93;7.28;;;19.50;99.90;;;;;;4983743;28;20023;-81
2022/05/21 01:48:04;;;;;;;12.30;7.25;;;19.50;99.90;;;;;;4998425;28;20445;-81
2022/05/21 01:50:31;;;;;;;13.88;7.68;;;19.50;99.90;;;;;;4998337;28;20030;-81
2022/05/21 01:52:57;;;;;;;18.25;7.20;;;19.50;99.90;;;;;;5008614;28;20033;-80
2022/05/21 01:55:24;;;;;;;12.57;7.53;;;19.50;99.90;;;;;;5008575;28;20034;-81
2022/05/21 01:57:50;;;;;;;15.95;6.93;;;19.40;99.90;;;;;;5004503;28;20033;-80
2022/05/21 02:00:17;;;;;;;12.82;8.32;;;19.40;99.90;;;;;;4997936;28;20035;-80
2022/05/21 02:02:43;;;;;;;16.60;8.75;;;19.40;99.90;;;;;;4998333;28;20022;-81
2022/05/21 02:05:09;;;;;;;13.57;8.98;;;19.40;99.90;;;;;;4997983;28;20030;-80
2022/05/21 02:07:35;;;;;;;19.25;9.52;;;19.40;99.90;;;;;;4997786;28;20018;-81
2022/05/21 02:10:02;;;;;;;15.55;8.85;;;19.40;99.90;;;;;;4996496;28;20509;-82
2022/05/21 02:12:28;;;;;;;16.95;9.40;;;19.40;99.90;;;;;;4999531;28;20038;-81
2022/05/21 02:14:57;;;;;;;20.05;8.80;;;19.30;99.90;;;;;;5003753;28;20031;-80
2022/05/21 02:17:24;;;;;;;16.73;9.77;;;19.30;99.90;;;;;;5003622;28;20052;-79
2022/05/21 02:19:50;;;;;;;16.52;9.32;;;19.30;99.90;;;;;;5002353;28;20094;-80
2022/05/21 02:22:16;;;;;;;25.30;8.85;;;19.20;99.90;;;;;;5001883;28;20056;-80
2022/05/21 02:24:42;;;;;;;16.40;8.85;;;19.20;99.90;;;;;;5001801;28;20455;-80
2022/05/21 02:27:12;;;;;;;13.50;8.43;;;19.20;99.90;;;;;;5000316;28;20027;-81
2022/05/21 02:29:39;;;;;;;18.60;8.13;;;19.20;99.90;;;;;;5001671;28;20023;-80
2022/05/21 02:32:06;;;;;;;16.70;8.30;;;19.20;99.90;;;;;;5004687;28;20018;-80
2022/05/21 02:34:32;;;;;;;15.73;8.40;;;19.30;99.90;;;;;;5004782;28;20030;-80
2022/05/21 02:39:42;;;;;;;14.60;7.53;;;19.30;99.90;;;;;;5000056;28;20030;-79
2022/05/21 02:42:43;;;;;;;15.52;7.82;;;19.40;99.90;;;;;;5001202;28;20409;-80
2022/05/21 02:44:55;;;;;;;15.30;7.43;;;19.50;99.90;;;;;;5002676;28;20092;-82
2022/05/21 02:47:20;;;;;;;13.65;7.28;;;19.50;99.90;;;;;;5008335;28;20094;-80
2022/05/21 02:49:46;;;;;;;19.27;7.95;;;19.60;99.90;;;;;;5011745;28;20461;-78
2022/05/21 02:52:13;;;;;;;13.05;7.72;;;19.70;99.90;;;;;;5010885;28;20027;-79
2022/05/21 02:54:38;;;;;;;16.30;8.55;;;19.70;99.90;;;;;;5004484;28;20471;-79
2022/05/21 02:57:07;;;;;;;15.60;6.95;;;19.50;99.90;;;;;;5002887;28;20026;-80
2022/05/21 02:59:33;;;;;;;12.60;6.90;;;19.20;99.90;;;;;;5002862;28;20042;-80
2022/05/21 03:01:59;;;;;;;8.80;5.75;;;19.00;99.90;;;;;;5002502;28;20026;-80
2022/05/21 03:04:24;;;;;;;13.32;6.00;;;18.90;99.90;;;;;;4999036;28;20027;-79
2022/05/21 03:06:50;;;;;;;12.30;6.35;;;18.80;99.90;;;;;;4999549;28;20114;-82
2022/05/21 03:12:01;;;;;;;12.07;5.78;;;18.70;99.90;;;;;;4999055;28;20525;-79
2022/05/21 03:14:26;;;;;;;11.95;6.18;;;18.70;99.90;;;;;;5000451;28;20043;-80
2022/05/21 03:16:59;;;;;;;15.38;6.18;;;18.60;99.90;;;;;;5001583;28;20099;-79
2022/05/21 03:19:28;;;;;;;13.68;6.00;;;18.50;99.90;;;;;;5033435;23;20481;-89
2022/05/21 03:21:54;;;;;;;16.98;6.22;;;18.50;99.90;;;;;;5019336;28;20062;-89
2022/05/21 03:24:20;;;;;;;14.13;6.10;;;18.50;99.90;;;;;;5017353;28;20022;-88
2022/05/21 03:26:46;;;;;;;10.10;5.90;;;18.50;99.90;;;;;;5014430;28;20089;-89
2022/05/21 03:29:12;;;;;;;14.48;5.15;;;18.50;99.90;;;;;;5013871;28;20513;-89
2022/05/21 03:31:38;;;;;;;8.75;4.75;;;18.60;99.90;;;;;;5012882;28;20026;-87
2022/05/21 03:34:04;;;;;;;11.38;4.80;;;18.60;99.90;;;;;;5013622;28;20026;-89
2022/05/21 03:36:30;;;;;;;11.98;4.93;;;18.60;99.90;;;;;;5012690;28;20036;-87
2022/05/21 03:38:57;;;;;;;10.63;5.03;;;18.60;99.90;;;;;;5010764;28;20045;-89
2022/05/21 03:41:23;;;;;;;8.80;4.25;;;18.60;99.90;;;;;;5012143;28;20366;-87
2022/05/21 03:43:50;;;;;;;6.57;3.60;;;18.60;99.90;;;;;;5011571;28;20038;-89
2022/05/21 03:46:15;;;;;;;9.18;3.28;;;18.60;99.90;;;;;;5014078;28;20023;-88
2022/05/21 03:48:42;;;;;;;7.88;4.00;;;18.60;99.90;;;;;;5013312;28;20057;-88
2022/05/21 03:51:07;;;;;;;8.63;3.38;;;18.70;99.90;;;;;;5012270;28;20022;-89
2022/05/21 03:53:33;;;;;;;12.10;3.72;;;18.70;99.90;;;;;;5012189;28;20113;-90
2022/05/21 03:55:59;;;;;;;11.32;4.22;;;18.70;99.90;;;;;;5012304;28;20094;-89
2022/05/21 03:58:25;;;;;;;9.55;4.10;;;18.70;99.90;;;;;;5013073;28;20173;-89
2022/05/21 04:00:51;;;;;;;7.80;3.50;;;18.70;99.90;;;;;;5014009;28;20130;-88
2022/05/21 04:03:17;;;;;;;9.57;4.53;;;18.70;99.90;;;;;;5012346;28;20034;-88
2022/05/21 04:05:43;;;;;;;6.93;3.60;;;18.70;99.90;;;;;;5012827;28;20031;-87
2022/05/21 04:08:09;;;;;;;6.80;4.38;;;18.70;99.90;;;;;;5012751;28;20037;-88
2022/05/21 04:10:35;;;;;;;10.85;4.43;;;18.80;99.90;;;;;;5012248;28;20026;-89
2022/05/21 04:13:01;;;;;;;10.48;4.13;;;18.80;99.90;;;;;;5013855;28;20042;-88
2022/05/21 04:15:27;;;;;;;8.13;3.72;;;18.80;99.90;;;;;;5014740;28;20030;-88
2022/05/21 04:17:53;;;;;;;9.70;3.85;;;18.80;99.90;;;;;;5015212;28;20034;-88
2022/05/21 04:20:23;;;;;;;10.90;4.10;;;18.80;99.90;;;;;;4999359;28;20064;-90
2022/05/21 04:22:50;;;;;;;10.80;4.55;;;18.90;99.90;;;;;;5000806;28;20077;-88
2022/05/21 04:25:16;;;;;;;6.05;4.20;;;18.90;99.90;;;;;;5017810;28;20536;-88
2022/05/21 04:27:43;;;;;;;7.32;3.90;;;18.90;99.90;;;;;;5018823;28;20026;-86
2022/05/21 04:30:14;;;;;;;9.38;4.32;;;18.90;99.90;;;;;;5018858;28;20086;-87
2022/05/21 04:32:40;;;;;;;9.50;4.95;;;19.00;99.90;;;;;;5018831;28;20046;-89
2022/05/21 04:35:06;;;;;;;12.05;4.15;;;19.10;99.90;;;;;;5018081;28;20018;-89
2022/05/21 04:37:36;;;;;;;7.15;3.78;;;19.10;99.90;;;;;;5018050;28;20040;-89
2022/05/21 04:40:05;;;;;;;9.57;4.18;;;19.20;99.90;;;;;;5015910;28;20030;-88
2022/05/21 04:42:30;;;;;;;9.13;4.25;;;19.30;99.90;;;;;;5016017;28;20027;-88
2022/05/21 04:44:56;;;;;;;9.70;4.10;;;19.30;99.90;;;;;;5017681;28;20023;-88
2022/05/21 04:47:22;;;;;;;9.48;4.10;;;19.30;99.90;;;;;;5018582;28;20017;-89
2022/05/21 04:49:48;;;;;;;8.48;4.45;;;19.40;99.90;;;;;;5017702;28;20022;-86
2022/05/21 04:52:14;;;;;;;8.25;4.40;;;19.50;99.90;;;;;;5018471;28;20022;-88
2022/05/21 04:54:39;;;;;;;13.95;4.45;;;19.50;99.90;;;;;;5017727;28;20025;-88
2022/05/21 04:57:06;;;;;;;9.55;4.47;;;19.60;99.90;;;;;;5018321;28;20019;-89
2022/05/21 04:59:32;;;;;;;9.55;3.92;;;19.60;99.90;;;;;;5017722;28;20027;-89
2022/05/21 05:01:58;;;;;;;12.35;3.97;;;19.70;99.90;;;;;;5018261;28;20051;-88
2022/05/21 05:04:24;;;;;;;7.22;4.05;;;19.70;99.90;;;;;;5018291;28;20029;-88
2022/05/21 05:06:50;;;;;;;9.18;4.10;;;19.70;99.90;;;;;;5017509;28;20022;-88
2022/05/21 05:09:21;;;;;;;10.77;4.45;;;19.80;99.90;;;;;;5018221;28;20014;-88
2022/05/21 05:11:47;;;;;;;8.93;4.25;;;19.80;99.90;;;;;;5017764;28;20045;-89
2022/05/21 05:14:14;;;;;;;10.57;4.22;;;19.80;99.90;;;;;;5017874;28;20014;-90
2022/05/21 05:16:40;;;;;;;10.20;4.50;;;19.70;99.90;;;;;;5000899;28;20082;-88
2022/05/21 05:19:06;;;;;;;10.10;4.70;;;19.80;99.90;;;;;;5012609;28;20034;-89
2022/05/21 05:21:32;;;;;;;12.57;4.68;;;19.80;99.90;;;;;;5016093;28;20023;-88
2022/05/21 05:23:58;;;;;;;9.65;5.05;;;19.80;99.90;;;;;;5018120;28;20082;-90
2022/05/21 05:26:24;;;;;;;11.52;5.05;;;19.80;99.90;;;;;;5017234;28;20057;-88
2022/05/21 05:28:50;;;;;;;13.02;4.88;;;19.90;99.90;;;;;;5018072;28;20022;-88
2022/05/21 05:31:16;;;;;;;9.05;4.72;;;19.90;99.90;;;;;;5017666;28;20458;-89
2022/05/21 05:33:41;;;;;;;18.13;5.70;;;19.90;99.90;;;;;;5014475;28;20034;-89
2022/05/21 05:36:07;;;;;;;11.20;5.60;;;20.00;99.90;;;;;;5006832;28;20026;-87
2022/05/21 05:38:35;;;;;;;10.02;5.57;;;20.00;99.90;;;;;;5005881;28;20022;-88
2022/05/21 05:41:01;;;;;;;12.10;5.35;;;20.10;99.90;;;;;;5007299;28;20132;-88
2022/05/21 05:43:27;;;;;;;12.18;5.55;;;20.10;99.90;;;;;;5005660;28;20034;-89
2022/05/21 05:45:59;;;;;;;11.10;5.20;;;20.10;99.90;;;;;;5006754;28;20026;-90
2022/05/21 05:48:26;;;;;;;10.45;5.47;;;20.20;99.90;;;;;;5011778;28;20050;-88
2022/05/21 05:50:53;;;;;;;7.55;5.03;;;20.30;99.90;;;;;;5021357;28;20060;-88
2022/05/21 05:53:19;;;;;;;11.57;5.40;;;20.40;99.90;;;;;;5020749;28;20036;-88
2022/05/21 05:55:45;;;;;;;10.70;5.35;;;20.50;99.90;;;;;;5020859;28;20022;-88
2022/05/21 06:00:55;;;;;;;11.75;5.50;;;20.70;99.90;;;;;;5017673;28;20038;-90
2022/05/21 06:03:21;;;;;;;11.95;6.20;;;20.90;99.90;;;;;;4997269;28;20102;-89
2022/05/21 06:05:49;;;;;;;11.50;5.55;;;20.90;99.90;;;;;;5011322;28;20059;-89
2022/05/21 06:08:16;;;;;;;12.70;5.47;;;21.00;99.90;;;;;;5009284;28;20030;-91
2022/05/21 06:10:43;;;;;;;9.98;5.30;;;21.10;99.90;;;;;;5011903;28;20030;-90
2022/05/21 06:13:13;;;;;;;11.68;5.75;;;21.10;99.90;;;;;;5018146;28;20068;-89
2022/05/21 06:15:39;;;;;;;11.32;4.88;;;21.20;99.90;;;;;;5020572;28;20050;-90
2022/05/21 06:18:07;;;;;;;8.18;5.30;;;21.30;99.90;;;;;;5020231;28;20018;-89
2022/05/21 06:20:34;;;;;;;11.50;5.75;;;21.30;99.90;;;;;;5020479;28;20050;-88
2022/05/21 06:23:00;;;;;;;12.45;5.60;;;21.30;99.90;;;;;;5004175;28;20102;-90
2022/05/21 06:25:26;;;;;;;12.13;5.28;;;21.30;99.90;;;;;;5020025;28;20018;-91
2022/05/21 06:27:53;;;;;;;11.90;5.10;;;21.30;99.90;;;;;;5017626;28;20038;-89
2022/05/21 06:30:22;;;;;;;10.15;5.00;;;21.30;99.90;;;;;;5019629;28;20026;-89
2022/05/21 06:32:48;;;;;;;12.60;5.22;;;21.40;99.90;;;;;;5019817;28;20024;-89
2022/05/21 06:35:17;;;;;;;10.98;5.25;;;21.40;99.90;;;;;;5019488;28;20015;-89
2022/05/21 06:37:43;;;;;;;11.38;4.90;;;21.40;99.90;;;;;;5016027;28;20011;-88
2022/05/21 06:40:11;;;;;;;9.90;4.88;;;21.40;99.90;;;;;;5011838;28;20074;-89
2022/05/21 06:42:37;;;;;;;10.50;5.95;;;21.40;99.90;;;;;;4995052;28;20038;-89
2022/05/21 06:45:04;;;;;;;11.52;5.60;;;21.50;99.90;;;;;;5012425;28;20062;-90
2022/05/21 06:47:29;;;;;;;6.75;4.68;;;21.60;99.90;;;;;;5017554;28;20030;-89
2022/05/21 06:49:56;;;;;;;10.43;4.78;;;21.70;99.90;;;;;;5016049;28;20048;-91
2022/05/21 06:52:24;;;;;;;14.85;5.45;;;21.80;99.90;;;;;;5011934;28;20034;-90
2022/05/21 06:54:50;;;;;;;8.88;4.78;;;21.90;99.90;;;;;;5011412;28;20034;-89
2022/05/21 06:57:16;;;;;;;12.68;5.00;;;22.10;99.90;;;;;;5009762;28;20054;-89
2022/05/21 06:59:42;;;;;;;8.18;4.60;;;22.10;99.90;;;;;;5017938;28;20024;-89
2022/05/21 07:02:08;;;;;;;10.98;4.55;;;22.30;99.90;;;;;;5016840;28;20018;-88
2022/05/21 07:07:33;;;;;;;16.83;4.40;;;22.30;99.90;;;;;;5019095;28;20023;-90
2022/05/21 07:10:01;;;;;;;10.60;4.40;;;22.20;99.90;;;;;;5019116;28;20222;-89
2022/05/21 07:12:28;;;;;;;11.38;4.28;;;22.30;99.90;;;;;;5018488;28;20053;-89
2022/05/21 07:14:54;;;;;;;11.70;5.03;;;22.30;99.90;;;;;;5016379;28;20086;-89
2022/05/21 07:17:20;;;;;;;12.02;4.85;;;22.20;99.90;;;;;;5014770;28;20080;-89
2022/05/21 07:19:45;;;;;;;11.55;4.47;;;22.20;99.90;;;;;;5018101;28;20018;-88
2022/05/21 07:22:11;;;;;;;9.40;4.22;;;22.20;99.90;;;;;;5012695;28;20030;-89
2022/05/21 07:24:44;;;;;;;6.13;4.18;;;22.20;99.90;;;;;;5011436;28;20038;-89
2022/05/21 07:27:12;;;;;;;11.45;4.82;;;22.30;99.90;;;;;;5009462;28;20030;-90
2022/05/21 07:29:39;;;;;;;10.20;4.82;;;22.40;99.90;;;;;;5013009;28;20366;-87
2022/05/21 07:32:20;;;;;;;9.98;4.97;;;22.50;99.90;;;;;;5014959;28;20050;-88
2022/05/21 07:34:46;;;;;;;11.07;3.90;;;22.60;99.90;;;;;;5017926;28;20038;-88
2022/05/21 07:37:12;;;;;;;6.50;4.03;;;22.60;99.90;;;;;;5018043;28;20038;-89
2022/05/21 07:39:39;;;;;;;9.88;4.40;;;22.70;99.90;;;;;;5018429;28;20066;-92
2022/05/21 07:42:07;;;;;;;7.70;4.00;;;22.70;99.90;;;;;;5017707;28;20017;-89
2022/05/21 07:44:33;;;;;;;12.43;4.30;;;22.80;99.90;;;;;;5018068;28;20046;-88
2022/05/21 07:46:58;;;;;;;6.88;4.05;;;22.90;99.90;;;;;;5018073;28;20018;-88
2022/05/21 07:49:24;;;;;;;8.00;4.35;;;22.90;99.90;;;;;;5017760;28;20026;-90
2022/05/21 07:51:50;;;;;;;7.03;4.03;;;22.70;99.90;;;;;;5018620;28;20022;-89
2022/05/21 07:54:16;;;;;;;8.88;4.03;;;22.70;99.90;;;;;;5007637;28;20109;-88
2022/05/21 07:56:42;;;;;;;10.65;3.80;;;22.80;99.90;;;;;;5005194;28;20091;-88
2022/05/21 07:59:08;;;;;;;10.77;3.40;;;22.70;99.90;;;;;;5007652;28;20022;-88
2022/05/21 08:01:34;;;;;;;8.93;3.80;;;22.70;99.90;;;;;;5008114;28;20219;-90
2022/05/21 08:04:00;;;;;;;4.22;3.17;;;22.70;99.90;;;;;;5010387;28;20250;-88
2022/05/21 08:06:26;;;;;;;10.55;4.05;;;22.90;99.90;;;;;;4993759;28;20022;-88
2022/05/21 08:08:54;;;;;;;8.23;3.53;;;22.90;99.90;;;;;;4994226;28;20053;-89
2022/05/21 08:11:21;;;;;;;6.57;3.30;;;23.00;99.90;;;;;;5018469;28;20023;-89
2022/05/21 08:13:47;;;;;;;10.63;3.55;;;23.10;99.90;;;;;;5018433;28;20090;-90
2022/05/21 08:16:14;;;;;;;8.38;2.95;;;23.20;99.90;;;;;;5017777;28;20026;-89
2022/05/21 08:18:41;;;;;;;5.72;3.35;;;23.20;99.90;;;;;;5017473;28;20052;-89
2022/05/21 08:21:07;;;;;;;3.63;2.75;;;23.30;99.90;;;;;;5017822;28;20037;-89
2022/05/21 08:29:04;;;;;;;;;;;23.70;99.90;;;;;;5018853;28;20029;-89
2022/05/21 08:31:30;;;;;;;4.80;2.50;;;23.70;99.90;;;;;;5018095;28;19898;-88
2022/05/21 08:33:56;;;;;;;4.22;2.10;;;23.80;99.90;;;;;;5018344;28;20037;-89
2022/05/21 08:36:22;;;;;;;8.25;2.03;;;23.90;99.90;;;;;;5001591;28;20010;-89
2022/05/21 08:38:48;;;;;;;5.57;2.33;;;23.80;99.90;;;;;;5017969;28;20053;-88
2022/05/21 08:41:22;;;;;;;4.63;2.13;;;23.80;99.90;;;;;;5017423;28;20011;-89
2022/05/21 08:44:07;;;;;;;3.00;2.08;;;23.90;99.90;;;;;;5016190;28;20057;-90
2022/05/21 08:46:58;;;;;;;4.82;1.85;;;24.00;99.80;;;;;;5017299;28;20034;-89
2022/05/21 08:49:33;;;;;;;2.28;1.55;;;24.10;99.80;;;;;;5017120;28;20022;-91
2022/05/21 08:52:24;;;;;;;5.85;1.75;;;24.20;99.90;;;;;;5017714;28;20048;-88
2022/05/21 08:54:54;;;;;;;4.28;2.00;;;24.40;99.90;;;;;;5017565;28;20034;-89
2022/05/21 08:57:26;;;;;;;6.22;2.28;;;24.40;99.90;;;;;;5001248;28;20098;-89
2022/05/21 09:00:10;;;;;;;3.38;2.08;;;24.60;99.90;;;;;;5017148;28;20034;-88
2022/05/21 09:02:37;;;;;;;7.68;2.47;;;24.80;99.90;;;;;;5017374;28;20023;-88
2022/05/21 09:05:08;;;;;;;4.07;2.38;;;24.80;99.90;;;;;;5017456;28;20022;-89
2022/05/21 09:08:03;;;;;;;5.80;2.22;;;24.70;99.50;;;;;;5018033;28;20134;-90
2022/05/21 09:10:43;;;;;;;6.75;2.10;;;24.80;99.10;;;;;;5017551;28;20026;-89
2022/05/21 09:13:36;;;;;;;4.63;2.03;;;24.90;98.70;;;;;;5017665;28;20027;-90
2022/05/21 09:18:47;;;;;;;4.63;1.65;;;24.70;95.00;;;;;;5025142;23;20052;-81
2022/05/21 09:21:19;;;;;;;2.47;1.42;;;24.70;95.20;;;;;;5011113;28;20046;-79
2022/05/21 09:23:49;;;;;;;1.65;1.10;;;24.80;94.90;;;;;;5008905;28;20033;-82
2022/05/21 09:26:16;;;;;;;2.78;1.85;;;24.80;94.40;;;;;;5001066;28;20125;-82
2022/05/21 09:28:42;;;;;;;2.65;1.60;;;25.00;94.50;;;;;;5002589;28;20516;-84
2022/05/21 09:31:09;;;;;;;4.95;2.00;;;25.10;94.10;;;;;;5003708;28;20061;-82
2022/05/21 09:33:37;;;;;;;6.18;1.92;;;25.10;94.00;;;;;;5005311;28;20045;-81
2022/05/21 09:36:05;;;;;;;5.55;1.60;;;25.30;93.90;;;;;;5004450;28;20113;-81
2022/05/21 09:38:49;;;;;;;8.50;1.60;;;25.60;93.30;;;;;;5005359;28;20030;-82
2022/05/21 09:41:32;;;;;;;4.30;1.40;;;26.00;92.50;;;;;;5004477;28;20061;-81
2022/05/21 09:47:15;;;;;;;4.50;1.70;;;27.60;90.40;;;;;;5007011;28;20058;-83
2022/05/21 09:49:42;;;;;;;6.05;1.98;;;27.80;90.30;;;;;;5010993;28;20035;-82
2022/05/21 09:52:23;;;;;;;4.45;1.88;;;28.20;90.30;;;;;;5012565;28;20026;-82
2022/05/21 09:54:49;;;;;;;7.28;2.20;;;28.60;90.10;;;;;;5011594;28;20034;-82
2022/05/21 09:57:38;;;;;;;5.20;2.33;;;28.80;90.50;;;;;;5006608;28;20114;-82
2022/05/21 10:00:16;;;;;;;4.47;2.10;;;28.30;90.80;;;;;;5005648;28;20042;-82
2022/05/21 10:02:44;;;;;;;6.75;2.20;;;28.30;91.00;;;;;;5004866;28;20023;-81
2022/05/21 10:05:19;;;;;;;4.22;2.63;;;27.80;91.40;;;;;;5008609;28;20053;-81
2022/05/21 10:11:00;;;;;;;4.70;2.33;;;27.10;92.00;;;;;;5019474;28;20026;-80
2022/05/21 10:13:35;;;;;;;5.65;2.47;;;27.20;91.90;;;;;;5018641;28;20238;-80
2022/05/21 10:16:27;;;;;;;4.78;2.35;;;27.10;90.80;;;;;;5018533;28;20076;-82
2022/05/21 10:19:10;;;;;;;9.80;2.58;;;28.10;89.60;;;;;;5018901;28;20061;-82
2022/05/21 10:21:53;;;;;;;6.30;2.13;;;29.70;85.10;;;;;;5018413;28;20038;-82
2022/05/21 10:24:28;;;;;;;2.70;1.90;;;30.00;84.50;;;;;;5019367;28;20076;-82
2022/05/21 10:26:59;;;;;;;;;;;29.40;84.80;;;;;;5019004;28;20034;-82
2022/05/21 10:29:48;;;;;;;2.72;2.00;;;29.40;83.90;;;;;;5017394;28;19917;-83
2022/05/21 10:32:18;;;;;;;6.05;1.95;;;29.30;83.20;;;;;;5013121;28;20045;-82
2022/05/21 10:35:14;;;;;;;5.47;1.98;;;29.00;83.70;;;;;;5011023;28;20034;-82
2022/05/21 10:37:52;;;;;;;3.33;1.90;;;28.70;83.40;;;;;;5013809;28;20082;-81
2022/05/21 10:40:45;;;;;;;6.32;2.10;;;28.20;84.30;;;;;;5012391;28;20026;-80
2022/05/21 10:43:24;;;;;;;6.85;2.45;;;28.80;83.70;;;;;;5009168;28;20073;-81
2022/05/21 10:46:25;;;;;;;6.10;2.25;;;29.50;82.30;;;;;;5010459;28;20085;-82
2022/05/21 10:49:09;;;;;;;6.72;2.20;;;30.10;81.20;;;;;;5012597;28;20030;-81
2022/05/21 10:51:47;;;;;;;4.50;2.13;;;30.90;79.70;;;;;;5010382;28;20045;-81
2022/05/21 10:54:59;;;;;;;7.97;2.65;;;31.90;76.40;;;;;;5012903;28;20034;-81
2022/05/21 10:57:57;;;;;;;6.85;1.98;;;32.20;75.70;;;;;;4968930;28;20046;-81
2022/05/21 11:00:38;;;;;;;7.85;2.30;;;33.20;73.30;;;;;;4994332;28;20130;-83
2022/05/21 11:03:16;;;;;;;7.57;2.22;;;33.00;71.90;;;;;;5005999;28;20037;-82
2022/05/21 11:06:06;;;;;;;3.25;1.98;;;33.00;71.40;;;;;;5002680;28;20035;-81
2022/05/21 11:08:41;;;;;;;2.55;1.95;;;33.60;70.10;;;;;;4991659;28;20130;-81
2022/05/21 11:11:26;;;;;;;9.23;2.00;;;34.00;68.80;;;;;;5005500;28;20030;-82
2022/05/21 11:13:55;;;;;;;7.95;2.28;;;31.90;69.90;;;;;;5008033;28;20026;-82
2022/05/21 11:16:29;;;;;;;6.85;2.15;;;30.80;71.40;;;;;;5004169;28;20057;-82
2022/05/21 11:19:06;;;;;;;5.97;1.92;;;32.80;69.20;;;;;;5005881;28;20463;-83
2022/05/21 11:21:39;;;;;;;3.80;1.90;;;33.80;67.80;;;;;;5005618;28;20030;-80
2022/05/21 11:24:13;;;;;;;2.55;1.92;;;34.70;65.00;;;;;;5013477;28;20038;-82
2022/05/21 11:27:10;;;;;;;5.70;1.80;;;33.90;64.90;;;;;;5016219;28;20046;-82
2022/05/21 11:29:45;;;;;;;4.70;2.08;;;33.70;64.50;;;;;;5017068;28;20015;-82
2022/05/21 11:37:58;;;;;;;6.90;2.47;;;34.10;63.80;;;;;;5017713;28;20030;-82
2022/05/21 11:40:49;;;;;;;5.45;1.80;;;35.30;63.70;;;;;;5017344;28;20011;-82
2022/05/21 11:43:16;;;;;;;6.63;2.00;;;36.20;60.60;;;;;;5015744;28;20041;-82
2022/05/21 11:45:59;;;;;;;1.52;1.33;;;36.00;59.80;;;;;;5009293;28;20026;-81
2022/05/21 11:48:28;;;;;;;3.30;1.85;;;36.90;59.10;;;;;;5004744;28;20046;-82
2022/05/21 11:51:19;;;;;;;3.42;1.70;;;37.20;57.80;;;;;;5005151;28;20014;-82
2022/05/21 11:53:46;;;;;;;6.30;1.75;;;36.70;57.20;;;;;;5002038;28;20549;-81
2022/05/21 11:56:13;;;;;;;3.85;1.80;;;36.10;57.10;;;;;;5010225;28;20045;-82
2022/05/21 11:58:57;;;;;;;8.63;1.73;;;36.50;56.80;;;;;;5015457;28;20413;-82
2022/05/21 12:01:39;;;;;;;;;;;36.50;56.10;;;;;;5013608;28;20041;-82
2022/05/21 12:04:06;;;;;;;4.65;1.48;;;36.50;56.30;;;;;;5013076;28;19964;-82
2022/05/21 12:06:40;;;;;;;2.20;1.33;;;37.40;54.80;;;;;;5008395;28;20086;-82
2022/05/21 12:09:20;;;;;;;;;;;37.30;54.30;;;;;;5006331;28;20034;-81
2022/05/21 12:11:46;;;;;;;5.13;1.98;;;36.10;54.40;;;;;;5009789;28;19969;-82
2022/05/21 12:14:25;;;;;;;2.72;1.23;;;34.80;55.40;;;;;;5008021;28;20030;-82
2022/05/21 12:16:58;;;;;;;5.30;1.70;;;35.30;55.50;;;;;;5007578;28;20095;-81
2022/05/21 12:19:43;;;;;;;7.87;1.57;;;36.10;55.20;;;;;;5005144;28;20042;-81
2022/05/21 12:22:09;;;;;;;4.45;1.40;;;36.90;54.00;;;;;;5004951;28;20061;-80
2022/05/21 12:24:41;;;;;;;4.45;1.48;;;36.90;53.30;;;;;;5005900;28;20033;-79
2022/05/21 12:27:26;;;;;;;2.08;1.17;;;37.40;53.30;;;;;;5009972;28;20077;-80
2022/05/21 12:30:02;;;;;;;5.43;1.70;;;36.80;52.50;;;;;;5010294;28;20512;-84
2022/05/21 12:32:29;;;;;;;3.47;1.52;;;36.20;52.70;;;;;;5006464;28;20034;-80
2022/05/21 12:35:03;;;;;;;3.00;1.13;;;37.10;52.20;;;;;;5009419;28;20145;-82
2022/05/21 12:37:42;;;;;;;2.45;1.30;;;37.80;51.40;;;;;;5003647;28;20494;-81
2022/05/21 12:40:32;;;;;;;2.92;1.40;;;37.30;50.60;;;;;;5003057;28;20037;-81
2022/05/21 12:43:13;;;;;;;2.17;1.20;;;36.30;52.10;;;;;;5011083;28;20025;-80
2022/05/21 12:45:49;;;;;;;1.73;1.23;;;37.60;50.90;;;;;;5012446;28;20391;-81
2022/05/21 12:48:35;;;;;;;4.03;1.40;;;37.60;50.30;;;;;;5005256;28;20089;-81
2022/05/21 12:51:05;;;;;;;2.25;1.50;;;38.50;49.90;;;;;;5003695;28;20045;-81
2022/05/21 12:53:47;;;;;;;5.70;1.70;;;38.90;49.30;;;;;;5002667;28;20058;-82
2022/05/21 12:56:27;;;;;;;4.03;1.30;;;39.50;48.40;;;;;;5004458;28;20030;-82
2022/05/21 12:59:06;;;;;;;6.72;2.10;;;38.00;48.80;;;;;;5002188;28;20031;-82
2022/05/21 13:01:31;;;;;;;2.05;1.02;;;36.80;50.20;;;;;;5003050;28;20430;-82
2022/05/21 13:03:59;;;;;;;2.50;1.17;;;37.70;49.70;;;;;;5003781;28;20029;-83
2022/05/21 13:06:29;;;;;;;8.35;1.50;;;38.70;48.90;;;;;;5002596;28;20034;-82
2022/05/21 13:08:56;;;;;;;3.15;1.33;;;38.10;48.70;;;;;;5007300;28;20026;-84
2022/05/21 13:11:24;;;;;;;2.65;1.23;;;37.90;49.10;;;;;;5004113;28;20046;-82
2022/05/21 13:14:07;;;;;;;1.52;1.20;;;37.90;48.60;;;;;;5004271;28;20049;-79
2022/05/21 13:16:33;;;;;;;1.98;1.45;;;38.50;48.00;;;;;;5004327;28;20121;-81
2022/05/21 13:19:17;;;;;;;2.67;1.33;;;38.00;47.40;;;;;;5003707;28;20037;-82
2022/05/21 13:21:53;;;;;;;3.00;1.20;;;38.20;48.10;;;;;;5005862;28;20035;-82
2022/05/21 13:24:42;;;;;;;4.28;1.30;;;38.50;47.60;;;;;;5003228;28;20030;-83
2022/05/21 13:27:13;;;;;;;3.63;1.20;;;38.00;46.00;;;;;;5008918;28;20031;-82
2022/05/21 13:29:40;;;;;;;1.88;1.00;;;38.00;46.20;;;;;;5003702;28;20030;-82
2022/05/21 13:32:26;;;;;;;2.70;0.93;;;38.20;46.00;;;;;;5004232;28;20029;-81
2022/05/21 13:34:55;;;;;;;1.65;1.17;;;38.80;46.40;;;;;;5007652;28;20030;-79
2022/05/21 13:37:34;;;;;;;2.92;1.67;;;39.50;46.30;;;;;;5003440;28;20517;-81
2022/05/21 13:40:20;;;;;;;3.10;1.10;;;38.00;47.20;;;;;;5001005;28;20073;-82